createdAt,value
2023-04-26T00:00:09.021Z,100.00
2023-04-26T00:02:37.739Z,100.00
2023-04-26T00:05:07.250Z,100.00
2023-04-26T00:07:38.183Z,100.00
2023-04-26T00:10:07.300Z,100.00
2023-04-26T00:12:36.473Z,100.00
2023-04-26T00:15:05.255Z,100.00
2023-04-26T00:17:33.501Z,100.00
2023-04-26T00:20:01.778Z,100.00
2023-04-26T00:22:30.012Z,100.00
2023-04-26T00:25:00.001Z,100.00
2023-04-26T00:27:28.128Z,100.00
2023-04-26T00:29:56.764Z,100.00
2023-04-26T00:32:24.919Z,100.00
2023-04-26T00:34:53.194Z,100.00
2023-04-26T00:37:21.627Z,100.00
2023-04-26T00:39:50.048Z,100.00
2023-04-26T00:42:20.691Z,100.00
2023-04-26T00:44:50.488Z,100.00
2023-04-26T00:47:19.193Z,100.00
2023-04-26T00:49:47.569Z,100.00
2023-04-26T00:52:15.967Z,100.00
2023-04-26T00:54:44.759Z,100.00
2023-04-26T00:57:14.055Z,100.00
2023-04-26T00:59:44.104Z,100.00
2023-04-26T01:02:12.766Z,100.00
2023-04-26T01:04:42.180Z,100.00
2023-04-26T01:07:12.156Z,100.00
2023-04-26T01:09:42.428Z,100.00
2023-04-26T01:12:11.496Z,100.00
2023-04-26T01:14:41.295Z,100.00
2023-04-26T01:17:11.003Z,100.00
2023-04-26T01:19:48.843Z,100.00
2023-04-26T01:22:18.007Z,100.00
2023-04-26T01:24:51.545Z,100.00
2023-04-26T01:27:19.795Z,100.00
2023-04-26T01:29:48.962Z,100.00
2023-04-26T01:32:17.484Z,100.00
2023-04-26T01:34:45.726Z,100.00
2023-04-26T01:37:13.899Z,100.00
2023-04-26T01:39:42.288Z,100.00
2023-04-26T01:42:11.927Z,100.00
2023-04-26T01:44:40.578Z,100.00
2023-04-26T01:47:08.860Z,100.00
2023-04-26T01:49:37.218Z,100.00
2023-04-26T01:52:05.702Z,100.00
2023-04-26T01:54:33.945Z,100.00
2023-04-26T01:57:02.745Z,100.00
2023-04-26T01:59:32.695Z,100.00
2023-04-26T02:02:01.055Z,100.00
2023-04-26T02:04:29.314Z,100.00
2023-04-26T02:06:57.932Z,100.00
2023-04-26T02:09:26.365Z,100.00
2023-04-26T02:11:54.835Z,100.00
2023-04-26T02:14:27.768Z,100.00
2023-04-26T02:16:57.815Z,100.00
2023-04-26T02:19:26.314Z,100.00
2023-04-26T02:21:57.329Z,100.00
2023-04-26T02:24:25.660Z,100.00
2023-04-26T02:26:54.740Z,100.00
2023-04-26T02:29:36.225Z,100.00
2023-04-26T02:32:12.389Z,100.00
2023-04-26T02:34:40.717Z,100.00
2023-04-26T02:37:09.099Z,100.00
2023-04-26T02:39:37.644Z,100.00
2023-04-26T02:42:10.929Z,100.00
2023-04-26T02:44:40.195Z,100.00
2023-04-26T02:47:09.469Z,100.00
2023-04-26T02:49:39.141Z,100.00
2023-04-26T02:52:07.442Z,100.00
2023-04-26T02:54:35.993Z,100.00
2023-04-26T02:57:04.430Z,100.00
2023-04-26T02:59:32.758Z,100.00
2023-04-26T03:02:01.205Z,100.00
2023-04-26T03:04:30.341Z,100.00
2023-04-26T03:07:00.034Z,100.00
2023-04-26T03:09:28.339Z,100.00
2023-04-26T03:11:56.781Z,100.00
2023-04-26T03:14:25.203Z,100.00
2023-04-26T03:16:53.733Z,100.00
2023-04-26T03:19:22.363Z,100.00
2023-04-26T03:21:51.577Z,100.00
2023-04-26T03:24:21.377Z,100.00
2023-04-26T03:26:49.806Z,100.00
2023-04-26T03:29:18.906Z,100.00
2023-04-26T03:31:47.337Z,100.00
2023-04-26T03:34:15.588Z,100.00
2023-04-26T03:36:44.015Z,100.00
2023-04-26T03:39:12.157Z,100.00
2023-04-26T03:41:42.000Z,100.00
2023-04-26T03:44:13.042Z,100.00
2023-04-26T03:46:41.460Z,100.00
2023-04-26T03:49:10.591Z,100.00
2023-04-26T03:51:38.889Z,100.00
2023-04-26T03:54:07.517Z,100.00
2023-04-26T03:56:36.822Z,100.00
2023-04-26T03:59:06.926Z,100.00
2023-04-26T04:01:35.345Z,100.00
2023-04-26T04:04:03.958Z,100.00
2023-04-26T04:06:33.296Z,100.00
2023-04-26T04:09:02.621Z,100.00
2023-04-26T04:11:31.048Z,100.00
2023-04-26T04:13:59.324Z,100.00
2023-04-26T04:16:29.082Z,100.00
2023-04-26T04:18:57.697Z,100.00
2023-04-26T04:21:25.999Z,100.00
2023-04-26T04:23:54.274Z,100.00
2023-04-26T04:26:22.522Z,100.00
2023-04-26T04:28:52.235Z,100.00
2023-04-26T04:31:21.608Z,100.00
2023-04-26T04:33:51.388Z,100.00
2023-04-26T04:36:19.919Z,100.00
2023-04-26T04:38:48.190Z,100.00
2023-04-26T04:41:18.636Z,100.00
2023-04-26T04:43:47.044Z,100.00
2023-04-26T04:46:15.587Z,100.00
2023-04-26T04:48:44.549Z,100.00
2023-04-26T04:51:14.429Z,100.00
2023-04-26T04:53:43.375Z,100.00
2023-04-26T04:56:12.118Z,100.00
2023-04-26T04:58:40.710Z,100.00
2023-04-26T05:01:10.085Z,100.00
2023-04-26T05:03:59.173Z,100.00
2023-04-26T05:06:29.582Z,100.00
2023-04-26T05:08:58.054Z,100.00
2023-04-26T05:11:26.822Z,100.00
2023-04-26T05:13:55.690Z,100.00
2023-04-26T05:16:24.604Z,100.00
2023-04-26T05:18:53.207Z,100.00
2023-04-26T05:21:23.060Z,100.00
2023-04-26T05:23:53.408Z,100.00
2023-04-26T05:26:22.210Z,100.00
2023-04-26T05:28:57.824Z,100.00
2023-04-26T05:31:32.003Z,100.00
2023-04-26T05:34:11.903Z,100.00
2023-04-26T05:36:41.899Z,100.00
2023-04-26T05:39:12.557Z,100.00
2023-04-26T05:41:40.931Z,100.00
2023-04-26T05:44:09.272Z,100.00
2023-04-26T05:46:37.520Z,100.00
2023-04-26T05:49:06.016Z,100.00
2023-04-26T05:51:35.108Z,100.00
2023-04-26T05:54:03.829Z,100.00
2023-04-26T05:56:33.458Z,100.00
2023-04-26T05:59:01.795Z,100.00
2023-04-26T06:01:30.178Z,100.00
2023-04-26T06:04:00.782Z,100.00
2023-04-26T06:06:34.152Z,100.00
2023-04-26T06:09:02.720Z,100.00
2023-04-26T06:11:31.187Z,100.00
2023-04-26T06:14:00.965Z,97.31
2023-04-26T06:16:29.441Z,97.43
2023-04-26T06:18:57.869Z,97.29
2023-04-26T06:21:26.762Z,100.00
2023-04-26T06:23:55.435Z,99.55
2023-04-26T06:26:27.439Z,95.67
2023-04-26T06:28:55.964Z,93.08
2023-04-26T06:31:25.653Z,91.10
2023-04-26T06:33:56.178Z,87.64
2023-04-26T06:36:24.682Z,87.51
2023-04-26T06:38:53.004Z,84.62
2023-04-26T06:41:24.573Z,84.93
2023-04-26T06:43:52.952Z,84.18
2023-04-26T06:46:23.137Z,85.29
2023-04-26T06:48:56.698Z,82.62
2023-04-26T06:51:27.102Z,83.80
2023-04-26T06:53:55.541Z,81.46
2023-04-26T06:56:23.978Z,78.08
2023-04-26T06:59:02.792Z,77.33
2023-04-26T07:01:34.105Z,77.06
2023-04-26T07:04:05.099Z,74.08
2023-04-26T07:06:33.431Z,74.26
2023-04-26T07:09:03.124Z,72.62
2023-04-26T07:11:31.630Z,73.91
2023-04-26T07:14:00.137Z,65.27
2023-04-26T07:16:29.081Z,66.23
2023-04-26T07:19:01.323Z,62.64
2023-04-26T07:21:30.927Z,62.08
2023-04-26T07:23:59.524Z,62.23
2023-04-26T07:26:28.174Z,59.52
2023-04-26T07:28:56.758Z,58.00
2023-04-26T07:31:25.535Z,62.17
2023-04-26T07:33:54.122Z,61.76
2023-04-26T07:36:23.806Z,63.87
2023-04-26T07:38:55.054Z,61.03
2023-04-26T07:41:25.757Z,62.00
2023-04-26T07:43:54.348Z,64.26
2023-04-26T07:46:22.927Z,62.88
2023-04-26T07:48:51.264Z,61.14
2023-04-26T07:51:19.572Z,59.88
2023-04-26T07:53:47.906Z,58.20
2023-04-26T07:56:17.760Z,60.30
2023-04-26T07:58:46.109Z,55.95
2023-04-26T08:01:15.753Z,54.96
2023-04-26T08:03:45.315Z,55.44
2023-04-26T08:06:14.225Z,55.30
2023-04-26T08:08:45.413Z,56.12
2023-04-26T08:11:13.741Z,55.02
2023-04-26T08:13:44.821Z,56.15
2023-04-26T08:16:13.313Z,57.01
2023-04-26T08:18:43.993Z,57.96
2023-04-26T08:21:13.925Z,57.81
2023-04-26T08:23:42.467Z,57.21
2023-04-26T08:26:11.704Z,58.58
2023-04-26T08:28:39.963Z,57.00
2023-04-26T08:31:10.401Z,57.19
2023-04-26T08:33:38.702Z,58.42
2023-04-26T08:36:08.349Z,54.67
2023-04-26T08:38:36.993Z,54.17
2023-04-26T08:41:06.455Z,53.99
2023-04-26T08:43:38.162Z,54.10
2023-04-26T08:46:12.686Z,52.43
2023-04-26T08:48:42.030Z,53.37
2023-04-26T08:51:14.372Z,54.52
2023-04-26T08:53:44.142Z,52.56
2023-04-26T08:56:14.470Z,51.15
2023-04-26T08:58:43.335Z,50.89
2023-04-26T09:01:16.879Z,48.12
2023-04-26T09:03:45.368Z,48.94
2023-04-26T09:06:14.877Z,52.72
2023-04-26T09:08:44.260Z,50.83
2023-04-26T09:11:12.390Z,51.97
2023-04-26T09:13:40.657Z,52.94
2023-04-26T09:16:09.400Z,48.40
2023-04-26T09:18:49.191Z,48.35
2023-04-26T09:21:19.357Z,48.72
2023-04-26T09:24:01.845Z,44.68
2023-04-26T09:26:30.164Z,37.88
2023-04-26T09:29:14.743Z,36.86
2023-04-26T09:31:47.009Z,34.41
2023-04-26T09:34:18.545Z,32.79
2023-04-26T09:36:55.793Z,29.82
2023-04-26T09:39:34.624Z,28.44
2023-04-26T09:42:03.618Z,27.77
2023-04-26T09:44:32.478Z,29.08
2023-04-26T09:47:05.744Z,27.64
2023-04-26T09:49:46.827Z,34.83
2023-04-26T09:52:15.097Z,39.44
2023-04-26T09:54:47.937Z,42.90
2023-04-26T09:57:17.446Z,45.12
2023-04-26T09:59:47.304Z,50.84
2023-04-26T10:02:19.872Z,56.26
2023-04-26T10:04:51.672Z,53.30
2023-04-26T10:07:21.981Z,54.86
2023-04-26T10:09:51.333Z,57.87
2023-04-26T10:12:21.283Z,50.97
2023-04-26T10:14:50.030Z,53.38
2023-04-26T10:17:21.038Z,46.07
2023-04-26T10:19:54.848Z,43.58
2023-04-26T10:22:25.526Z,41.06
2023-04-26T10:24:56.050Z,39.15
2023-04-26T10:27:50.353Z,41.65
2023-04-26T10:30:20.601Z,34.21
2023-04-26T10:33:15.010Z,37.91
2023-04-26T10:36:05.095Z,36.09
2023-04-26T10:38:33.794Z,35.57
2023-04-26T10:41:31.495Z,34.40
2023-04-26T10:44:01.852Z,28.57
2023-04-26T10:46:41.279Z,31.54
2023-04-26T10:49:17.258Z,33.43
2023-04-26T10:52:12.968Z,37.20
2023-04-26T10:55:02.730Z,38.52
2023-04-26T10:57:54.182Z,36.74
2023-04-26T11:00:32.733Z,37.32
2023-04-26T11:03:05.904Z,38.77
2023-04-26T11:05:43.667Z,38.30
2023-04-26T11:08:19.321Z,31.24
2023-04-26T11:10:53.139Z,28.72
2023-04-26T11:13:21.527Z,28.74
2023-04-26T11:15:54.566Z,27.63
2023-04-26T11:18:23.396Z,29.42
2023-04-26T11:20:51.752Z,27.56
2023-04-26T11:23:21.913Z,27.62
2023-04-26T11:25:50.298Z,29.71
2023-04-26T11:28:20.183Z,27.23
2023-04-26T11:30:50.044Z,25.57
2023-04-26T11:33:20.178Z,21.83
2023-04-26T11:35:48.962Z,24.62
2023-04-26T11:38:17.865Z,23.51
2023-04-26T11:40:54.993Z,25.93
2023-04-26T11:43:23.461Z,27.93
2023-04-26T11:45:51.889Z,30.03
2023-04-26T11:48:20.662Z,33.19
2023-04-26T11:50:49.544Z,32.43
2023-04-26T11:53:18.055Z,31.93
2023-04-26T11:55:47.882Z,33.55
2023-04-26T11:58:17.434Z,34.01
2023-04-26T12:00:59.241Z,35.20
2023-04-26T12:03:32.574Z,35.91
2023-04-26T12:06:01.245Z,36.70
2023-04-26T12:08:29.681Z,37.56
2023-04-26T12:11:03.028Z,39.08
2023-04-26T12:13:32.689Z,37.99
2023-04-26T12:16:01.101Z,36.90
2023-04-26T12:18:33.754Z,37.98
2023-04-26T12:21:02.604Z,37.79
2023-04-26T12:23:40.356Z,34.83
2023-04-26T12:26:12.218Z,35.85
2023-04-26T12:28:41.405Z,36.15
2023-04-26T12:31:10.122Z,35.57
2023-04-26T12:33:39.824Z,35.44
2023-04-26T12:36:09.905Z,34.05
2023-04-26T12:38:38.423Z,36.04
2023-04-26T12:41:07.252Z,34.82
2023-04-26T12:43:36.894Z,30.14
2023-04-26T12:46:05.642Z,31.12
2023-04-26T12:48:34.199Z,30.46
2023-04-26T12:51:02.485Z,33.02
2023-04-26T12:53:30.944Z,33.87
2023-04-26T12:55:59.180Z,33.58
2023-04-26T12:58:28.822Z,32.58
2023-04-26T13:00:58.500Z,34.95
2023-04-26T13:03:26.866Z,34.89
2023-04-26T13:05:56.203Z,35.10
2023-04-26T13:08:24.717Z,33.26
2023-04-26T13:10:52.990Z,32.19
2023-04-26T13:13:26.274Z,33.96
2023-04-26T13:16:02.518Z,32.63
2023-04-26T13:18:30.890Z,31.10
2023-04-26T13:20:59.196Z,34.00
2023-04-26T13:23:27.737Z,34.61
2023-04-26T13:25:55.902Z,36.29
2023-04-26T13:28:24.246Z,37.39
2023-04-26T13:30:52.655Z,37.43
2023-04-26T13:33:22.999Z,35.19
2023-04-26T13:35:51.370Z,34.90
2023-04-26T13:38:20.166Z,34.81
2023-04-26T13:40:48.731Z,32.95
2023-04-26T13:43:20.286Z,34.66
2023-04-26T13:45:48.581Z,35.49
2023-04-26T13:48:17.541Z,35.45
2023-04-26T13:50:47.568Z,37.99
2023-04-26T13:53:15.789Z,37.18
2023-04-26T13:55:44.113Z,36.90
2023-04-26T13:58:12.285Z,37.03
2023-04-26T14:00:40.383Z,34.79
2023-04-26T14:03:09.099Z,33.54
2023-04-26T14:05:37.538Z,33.62
2023-04-26T14:08:07.757Z,34.67
2023-04-26T14:10:36.034Z,35.16
2023-04-26T14:13:04.332Z,31.91
2023-04-26T14:15:32.568Z,33.51
2023-04-26T14:18:00.992Z,34.61
2023-04-26T14:20:29.209Z,34.02
2023-04-26T14:22:57.475Z,32.43
2023-04-26T14:25:27.518Z,32.62
2023-04-26T14:27:56.060Z,33.06
2023-04-26T14:30:25.322Z,32.68
2023-04-26T14:32:53.624Z,33.77
2023-04-26T14:35:22.211Z,34.07
2023-04-26T14:37:50.624Z,36.42
2023-04-26T14:40:19.452Z,36.20
2023-04-26T14:42:49.257Z,36.02
2023-04-26T14:45:17.524Z,37.01
2023-04-26T14:47:47.774Z,36.53
2023-04-26T14:50:16.161Z,36.81
2023-04-26T14:52:44.397Z,36.55
2023-04-26T14:55:12.596Z,35.82
2023-04-26T14:57:42.071Z,36.36
2023-04-26T15:00:15.449Z,36.16
2023-04-26T15:02:44.133Z,35.42
2023-04-26T15:05:13.063Z,36.74
2023-04-26T15:07:41.262Z,37.50
2023-04-26T15:10:10.089Z,37.11
2023-04-26T15:12:38.433Z,37.19
2023-04-26T15:15:07.677Z,37.14
2023-04-26T15:17:37.434Z,37.33
2023-04-26T15:20:07.355Z,38.38
2023-04-26T15:22:38.675Z,36.97
2023-04-26T15:25:09.122Z,40.39
2023-04-26T15:27:38.013Z,38.69
2023-04-26T15:30:07.507Z,38.43
2023-04-26T15:32:37.293Z,39.27
2023-04-26T15:35:06.379Z,40.50
2023-04-26T15:37:34.612Z,38.48
2023-04-26T15:40:02.953Z,40.43
2023-04-26T15:42:31.554Z,38.65
2023-04-26T15:44:59.723Z,38.21
2023-04-26T15:47:28.147Z,40.28
2023-04-26T15:50:03.639Z,41.81
2023-04-26T15:52:37.726Z,38.79
2023-04-26T15:55:08.409Z,42.50
2023-04-26T15:57:37.030Z,40.44
2023-04-26T16:00:08.532Z,38.76
2023-04-26T16:02:37.324Z,42.80
2023-04-26T16:05:08.409Z,39.28
2023-04-26T16:07:38.889Z,40.12
2023-04-26T16:10:09.259Z,43.71
2023-04-26T16:12:39.719Z,43.64
2023-04-26T16:15:09.530Z,41.79
2023-04-26T16:17:39.446Z,39.95
2023-04-26T16:20:10.762Z,39.18
2023-04-26T16:22:39.213Z,42.70
2023-04-26T16:25:09.164Z,40.93
2023-04-26T16:27:37.485Z,40.16
2023-04-26T16:30:06.313Z,39.28
2023-04-26T16:32:34.651Z,40.02
2023-04-26T16:35:02.926Z,41.12
2023-04-26T16:37:32.601Z,40.32
2023-04-26T16:40:01.054Z,40.67
2023-04-26T16:42:31.374Z,40.41
2023-04-26T16:44:59.655Z,40.96
2023-04-26T16:47:27.865Z,41.18
2023-04-26T16:49:56.315Z,41.31
2023-04-26T16:52:24.609Z,42.08
2023-04-26T16:54:54.284Z,41.42
2023-04-26T16:57:22.676Z,41.75
2023-04-26T16:59:51.554Z,42.68
2023-04-26T17:02:20.145Z,42.06
2023-04-26T17:04:50.092Z,43.27
2023-04-26T17:07:18.358Z,44.02
2023-04-26T17:09:47.122Z,42.81
2023-04-26T17:12:17.176Z,44.21
2023-04-26T17:14:45.696Z,45.77
2023-04-26T17:17:14.331Z,47.74
2023-04-26T17:19:42.887Z,48.75
2023-04-26T17:22:11.578Z,50.03
2023-04-26T17:24:40.045Z,49.82
2023-04-26T17:27:08.290Z,50.85
2023-04-26T17:29:38.892Z,53.54
2023-04-26T17:32:08.177Z,52.42
2023-04-26T17:34:39.002Z,51.66
2023-04-26T17:37:07.722Z,52.46
2023-04-26T17:39:36.614Z,53.38
2023-04-26T17:42:05.756Z,56.02
2023-04-26T17:44:34.722Z,56.42
2023-04-26T17:47:04.920Z,59.70
2023-04-26T17:49:34.314Z,59.73
2023-04-26T17:52:02.745Z,60.88
2023-04-26T17:54:31.445Z,61.93
2023-04-26T17:57:00.043Z,62.61
2023-04-26T17:59:28.306Z,62.87
2023-04-26T18:01:58.153Z,64.02
2023-04-26T18:04:28.508Z,65.76
2023-04-26T18:06:57.569Z,65.10
2023-04-26T18:09:28.089Z,64.42
2023-04-26T18:11:57.327Z,65.59
2023-04-26T18:14:26.716Z,67.07
2023-04-26T18:16:55.351Z,67.82
2023-04-26T18:19:24.814Z,69.72
2023-04-26T18:21:54.624Z,68.25
2023-04-26T18:24:23.643Z,68.47
2023-04-26T18:26:53.903Z,70.00
2023-04-26T18:29:23.118Z,69.52
2023-04-26T18:31:53.141Z,71.76
2023-04-26T18:34:21.717Z,71.29
2023-04-26T18:36:50.423Z,72.93
2023-04-26T18:39:21.602Z,71.67
2023-04-26T18:41:51.144Z,72.78
2023-04-26T18:44:19.491Z,74.49
2023-04-26T18:46:48.678Z,75.36
2023-04-26T18:49:17.743Z,76.85
2023-04-26T18:51:50.516Z,78.61
2023-04-26T18:54:21.299Z,79.79
2023-04-26T18:56:50.372Z,79.42
2023-04-26T18:59:20.615Z,78.46
2023-04-26T19:01:53.296Z,80.05
2023-04-26T19:04:26.405Z,82.69
2023-04-26T19:06:56.538Z,82.06
2023-04-26T19:09:27.881Z,83.58
2023-04-26T19:11:56.933Z,85.37
2023-04-26T19:14:27.847Z,86.62
2023-04-26T19:16:56.969Z,86.75
2023-04-26T19:19:27.198Z,87.98
2023-04-26T19:21:57.298Z,89.01
2023-04-26T19:24:30.137Z,90.03
2023-04-26T19:26:59.005Z,90.22
2023-04-26T19:29:28.650Z,90.98
2023-04-26T19:31:59.533Z,90.51
2023-04-26T19:34:31.752Z,93.47
2023-04-26T19:37:01.427Z,93.42
2023-04-26T19:39:34.033Z,95.01
2023-04-26T19:42:03.909Z,96.91
2023-04-26T19:44:33.552Z,96.36
2023-04-26T19:47:02.451Z,97.38
2023-04-26T19:49:35.040Z,98.94
2023-04-26T19:52:04.049Z,99.77
2023-04-26T19:54:33.979Z,100.00
2023-04-26T19:57:04.752Z,100.00
2023-04-26T19:59:34.052Z,100.00
2023-04-26T20:02:06.781Z,100.00
2023-04-26T20:04:37.596Z,100.00
2023-04-26T20:07:06.250Z,100.00
2023-04-26T20:09:39.032Z,100.00
2023-04-26T20:12:08.832Z,100.00
2023-04-26T20:14:40.628Z,100.00
2023-04-26T20:17:10.544Z,100.00
2023-04-26T20:19:39.569Z,100.00
2023-04-26T20:22:11.936Z,100.00
2023-04-26T20:24:44.170Z,100.00
2023-04-26T20:27:13.778Z,100.00
2023-04-26T20:29:44.017Z,100.00
2023-04-26T20:32:12.903Z,100.00
2023-04-26T20:34:41.902Z,100.00
2023-04-26T20:37:10.493Z,100.00
2023-04-26T20:39:39.394Z,100.00
2023-04-26T20:42:10.131Z,100.00
2023-04-26T20:44:40.834Z,100.00
2023-04-26T20:47:09.164Z,100.00
2023-04-26T20:49:37.867Z,100.00
2023-04-26T20:52:06.405Z,100.00
2023-04-26T20:54:35.110Z,100.00
2023-04-26T20:57:04.056Z,100.00
2023-04-26T20:59:33.790Z,100.00
2023-04-26T21:02:02.950Z,100.00
2023-04-26T21:04:31.464Z,100.00
2023-04-26T21:06:59.806Z,100.00
2023-04-26T21:09:28.238Z,100.00
2023-04-26T21:11:56.552Z,100.00
2023-04-26T21:14:24.872Z,100.00
2023-04-26T21:16:54.492Z,100.00
2023-04-26T21:19:22.834Z,100.00
2023-04-26T21:21:51.192Z,100.00
2023-04-26T21:24:19.421Z,100.00
2023-04-26T21:26:47.723Z,100.00
2023-04-26T21:29:16.622Z,100.00
2023-04-26T21:31:44.809Z,100.00
2023-04-26T21:34:14.564Z,100.00
2023-04-26T21:36:42.962Z,100.00
2023-04-26T21:39:11.769Z,100.00
2023-04-26T21:41:40.286Z,100.00
2023-04-26T21:44:08.590Z,100.00
2023-04-26T21:46:36.925Z,100.00
2023-04-26T21:49:05.286Z,100.00
2023-04-26T21:51:35.026Z,100.00
2023-04-26T21:54:03.360Z,100.00
2023-04-26T21:56:31.716Z,100.00
2023-04-26T21:59:00.118Z,100.00
2023-04-26T22:01:28.424Z,100.00
2023-04-26T22:03:57.227Z,100.00
2023-04-26T22:06:25.517Z,100.00
2023-04-26T22:08:55.113Z,100.00
2023-04-26T22:11:23.466Z,100.00
2023-04-26T22:13:51.793Z,100.00
2023-04-26T22:16:20.170Z,100.00
2023-04-26T22:18:48.462Z,100.00
2023-04-26T22:21:16.785Z,100.00
2023-04-26T22:23:45.026Z,100.00
2023-04-26T22:26:14.724Z,100.00
2023-04-26T22:28:43.050Z,100.00
2023-04-26T22:31:11.455Z,100.00
2023-04-26T22:33:39.758Z,100.00
2023-04-26T22:36:08.719Z,100.00
2023-04-26T22:38:37.086Z,100.00
2023-04-26T22:41:07.400Z,100.00
2023-04-26T22:43:37.318Z,100.00
2023-04-26T22:46:05.684Z,100.00
2023-04-26T22:48:33.955Z,100.00
2023-04-26T22:51:02.436Z,100.00
2023-04-26T22:53:31.072Z,100.00
2023-04-26T22:55:59.327Z,100.00
2023-04-26T22:58:27.815Z,100.00
2023-04-26T23:00:57.484Z,100.00
2023-04-26T23:03:26.100Z,100.00
2023-04-26T23:05:54.503Z,100.00
2023-04-26T23:08:22.859Z,100.00
2023-04-26T23:10:51.086Z,100.00
2023-04-26T23:13:19.633Z,100.00
2023-04-26T23:15:47.902Z,100.00
2023-04-26T23:18:17.574Z,100.00
2023-04-26T23:20:45.911Z,100.00
2023-04-26T23:23:14.246Z,100.00
2023-04-26T23:25:42.593Z,100.00
2023-04-26T23:28:11.078Z,100.00
2023-04-26T23:30:39.351Z,100.00
2023-04-26T23:33:07.818Z,100.00
2023-04-26T23:35:41.685Z,100.00
2023-04-26T23:38:10.001Z,100.00
2023-04-26T23:40:38.436Z,100.00
2023-04-26T23:43:06.800Z,100.00
2023-04-26T23:45:35.262Z,100.00
2023-04-26T23:48:03.678Z,100.00
2023-04-26T23:50:32.165Z,100.00
2023-04-26T23:53:01.966Z,100.00
2023-04-26T23:55:30.830Z,100.00
2023-04-26T23:57:59.147Z,100.00
